sensor_id;sensor_type;location;lat;lon;timestamp;P1;durP1;ratioP1;P2;durP2;ratioP2
13012;SDS011;22580;57.670;12.006;2023-05-20T00:01:09;1.90;;;1.80;;
13012;SDS011;22580;57.670;12.006;2023-05-20T00:03:36;1.73;;;1.63;;
13012;SDS011;22580;57.670;12.006;2023-05-20T00:06:03;1.77;;;1.67;;
13012;SDS011;22580;57.670;12.006;2023-05-20T00:08:34;1.10;;;1.10;;
13012;SDS011;22580;57.670;12.006;2023-05-20T00:11:03;1.13;;;1.13;;
13012;SDS011;22580;57.670;12.006;2023-05-20T00:13:30;1.00;;;1.00;;
13012;SDS011;22580;57.670;12.006;2023-05-20T00:15:59;0.80;;;0.80;;
13012;SDS011;22580;57.670;12.006;2023-05-20T00:18:27;0.70;;;0.70;;
13012;SDS011;22580;57.670;12.006;2023-05-20T00:20:54;1.00;;;1.00;;
13012;SDS011;22580;57.670;12.006;2023-05-20T00:23:27;1.00;;;1.00;;
13012;SDS011;22580;57.670;12.006;2023-05-20T00:25:56;0.90;;;0.90;;
13012;SDS011;22580;57.670;12.006;2023-05-20T00:28:27;1.00;;;1.00;;
13012;SDS011;22580;57.670;12.006;2023-05-20T00:30:55;0.90;;;0.90;;
13012;SDS011;22580;57.670;12.006;2023-05-20T00:33:21;1.03;;;1.03;;
13012;SDS011;22580;57.670;12.006;2023-05-20T00:35:48;1.00;;;1.00;;
13012;SDS011;22580;57.670;12.006;2023-05-20T00:38:15;1.30;;;1.20;;
13012;SDS011;22580;57.670;12.006;2023-05-20T00:40:42;1.13;;;1.13;;
13012;SDS011;22580;57.670;12.006;2023-05-20T00:43:11;1.17;;;1.13;;
13012;SDS011;22580;57.670;12.006;2023-05-20T00:45:38;1.50;;;1.40;;
13012;SDS011;22580;57.670;12.006;2023-05-20T00:48:05;0.90;;;0.90;;
13012;SDS011;22580;57.670;12.006;2023-05-20T00:50:33;0.90;;;0.90;;
13012;SDS011;22580;57.670;12.006;2023-05-20T00:53:01;0.70;;;0.70;;
13012;SDS011;22580;57.670;12.006;2023-05-20T00:55:28;0.70;;;0.70;;
13012;SDS011;22580;57.670;12.006;2023-05-20T00:57:55;1.40;;;1.30;;
13012;SDS011;22580;57.670;12.006;2023-05-20T01:00:24;2.17;;;2.07;;
13012;SDS011;22580;57.670;12.006;2023-05-20T01:02:51;2.80;;;2.60;;
13012;SDS011;22580;57.670;12.006;2023-05-20T01:05:20;2.60;;;2.40;;
13012;SDS011;22580;57.670;12.006;2023-05-20T01:07:47;1.60;;;1.50;;
13012;SDS011;22580;57.670;12.006;2023-05-20T01:10:15;1.60;;;1.50;;
13012;SDS011;22580;57.670;12.006;2023-05-20T01:12:44;1.60;;;1.50;;
13012;SDS011;22580;57.670;12.006;2023-05-20T01:15:14;1.63;;;1.53;;
13012;SDS011;22580;57.670;12.006;2023-05-20T01:17:43;1.50;;;1.40;;
13012;SDS011;22580;57.670;12.006;2023-05-20T01:20:16;1.73;;;1.63;;
13012;SDS011;22580;57.670;12.006;2023-05-20T01:22:51;1.80;;;1.70;;
13012;SDS011;22580;57.670;12.006;2023-05-20T01:25:19;1.80;;;1.70;;
13012;SDS011;22580;57.670;12.006;2023-05-20T01:27:46;1.30;;;1.30;;
13012;SDS011;22580;57.670;12.006;2023-05-20T01:30:13;1.40;;;1.30;;
13012;SDS011;22580;57.670;12.006;2023-05-20T01:32:41;0.87;;;0.87;;
13012;SDS011;22580;57.670;12.006;2023-05-20T01:35:12;1.13;;;1.13;;
13012;SDS011;22580;57.670;12.006;2023-05-20T01:37:41;0.80;;;0.80;;
13012;SDS011;22580;57.670;12.006;2023-05-20T01:40:11;0.80;;;0.80;;
13012;SDS011;22580;57.670;12.006;2023-05-20T01:42:41;0.70;;;0.70;;
13012;SDS011;22580;57.670;12.006;2023-05-20T01:45:11;0.77;;;0.77;;
13012;SDS011;22580;57.670;12.006;2023-05-20T01:47:39;0.70;;;0.70;;
13012;SDS011;22580;57.670;12.006;2023-05-20T01:50:06;0.50;;;0.50;;
13012;SDS011;22580;57.670;12.006;2023-05-20T01:52:34;0.70;;;0.70;;
13012;SDS011;22580;57.670;12.006;2023-05-20T01:55:01;0.60;;;0.60;;
13012;SDS011;22580;57.670;12.006;2023-05-20T01:57:29;0.77;;;0.77;;
13012;SDS011;22580;57.670;12.006;2023-05-20T01:59:56;0.70;;;0.70;;
13012;SDS011;22580;57.670;12.006;2023-05-20T02:02:23;0.70;;;0.70;;
13012;SDS011;22580;57.670;12.006;2023-05-20T02:04:53;0.53;;;0.53;;
13012;SDS011;22580;57.670;12.006;2023-05-20T02:07:20;0.60;;;0.60;;
13012;SDS011;22580;57.670;12.006;2023-05-20T02:09:47;0.47;;;0.47;;
13012;SDS011;22580;57.670;12.006;2023-05-20T02:12:13;0.60;;;0.60;;
13012;SDS011;22580;57.670;12.006;2023-05-20T02:14:43;0.50;;;0.50;;
13012;SDS011;22580;57.670;12.006;2023-05-20T02:17:12;0.70;;;0.70;;
13012;SDS011;22580;57.670;12.006;2023-05-20T02:19:40;0.47;;;0.47;;
13012;SDS011;22580;57.670;12.006;2023-05-20T02:22:07;0.70;;;0.70;;
13012;SDS011;22580;57.670;12.006;2023-05-20T02:24:34;0.60;;;0.60;;
13012;SDS011;22580;57.670;12.006;2023-05-20T02:27:01;0.50;;;0.50;;
13012;SDS011;22580;57.670;12.006;2023-05-20T02:29:28;0.50;;;0.50;;
13012;SDS011;22580;57.670;12.006;2023-05-20T02:31:57;0.70;;;0.70;;
13012;SDS011;22580;57.670;12.006;2023-05-20T02:34:24;0.63;;;0.63;;
13012;SDS011;22580;57.670;12.006;2023-05-20T02:36:51;0.60;;;0.60;;
13012;SDS011;22580;57.670;12.006;2023-05-20T02:39:18;0.80;;;0.80;;
13012;SDS011;22580;57.670;12.006;2023-05-20T02:41:45;0.70;;;0.70;;
13012;SDS011;22580;57.670;12.006;2023-05-20T02:44:12;0.80;;;0.80;;
13012;SDS011;22580;57.670;12.006;2023-05-20T02:46:39;0.60;;;0.60;;
13012;SDS011;22580;57.670;12.006;2023-05-20T02:49:07;0.50;;;0.50;;
13012;SDS011;22580;57.670;12.006;2023-05-20T02:51:35;0.40;;;0.40;;
13012;SDS011;22580;57.670;12.006;2023-05-20T02:54:02;0.60;;;0.60;;
13012;SDS011;22580;57.670;12.006;2023-05-20T02:56:30;0.67;;;0.67;;
13012;SDS011;22580;57.670;12.006;2023-05-20T02:58:58;0.80;;;0.80;;
13012;SDS011;22580;57.670;12.006;2023-05-20T03:01:25;0.80;;;0.80;;
13012;SDS011;22580;57.670;12.006;2023-05-20T03:03:53;0.67;;;0.67;;
13012;SDS011;22580;57.670;12.006;2023-05-20T03:06:21;0.53;;;0.53;;
13012;SDS011;22580;57.670;12.006;2023-05-20T03:08:48;0.50;;;0.50;;
13012;SDS011;22580;57.670;12.006;2023-05-20T03:11:15;0.60;;;0.60;;
13012;SDS011;22580;57.670;12.006;2023-05-20T03:13:42;0.50;;;0.50;;
13012;SDS011;22580;57.670;12.006;2023-05-20T03:16:09;0.60;;;0.60;;
13012;SDS011;22580;57.670;12.006;2023-05-20T03:18:37;0.40;;;0.40;;
13012;SDS011;22580;57.670;12.006;2023-05-20T03:21:05;0.50;;;0.50;;
13012;SDS011;22580;57.670;12.006;2023-05-20T03:23:33;0.40;;;0.40;;
13012;SDS011;22580;57.670;12.006;2023-05-20T03:26:00;0.47;;;0.47;;
13012;SDS011;22580;57.670;12.006;2023-05-20T03:28:28;0.57;;;0.57;;
13012;SDS011;22580;57.670;12.006;2023-05-20T03:30:55;0.50;;;0.50;;
13012;SDS011;22580;57.670;12.006;2023-05-20T03:33:22;0.57;;;0.57;;
13012;SDS011;22580;57.670;12.006;2023-05-20T03:35:50;0.40;;;0.40;;
13012;SDS011;22580;57.670;12.006;2023-05-20T03:38:17;0.30;;;0.30;;
13012;SDS011;22580;57.670;12.006;2023-05-20T03:40:45;0.40;;;0.40;;
13012;SDS011;22580;57.670;12.006;2023-05-20T03:43:12;0.40;;;0.40;;
13012;SDS011;22580;57.670;12.006;2023-05-20T03:45:39;0.40;;;0.40;;
13012;SDS011;22580;57.670;12.006;2023-05-20T03:48:06;0.60;;;0.60;;
13012;SDS011;22580;57.670;12.006;2023-05-20T03:50:33;0.50;;;0.50;;
13012;SDS011;22580;57.670;12.006;2023-05-20T03:53:00;0.50;;;0.50;;
13012;SDS011;22580;57.670;12.006;2023-05-20T03:55:27;0.50;;;0.50;;
13012;SDS011;22580;57.670;12.006;2023-05-20T03:57:55;0.60;;;0.60;;
13012;SDS011;22580;57.670;12.006;2023-05-20T04:00:22;0.60;;;0.60;;
13012;SDS011;22580;57.670;12.006;2023-05-20T04:02:50;0.40;;;0.40;;
13012;SDS011;22580;57.670;12.006;2023-05-20T04:05:17;0.40;;;0.40;;
13012;SDS011;22580;57.670;12.006;2023-05-20T04:07:44;0.30;;;0.30;;
13012;SDS011;22580;57.670;12.006;2023-05-20T04:10:11;0.63;;;0.63;;
13012;SDS011;22580;57.670;12.006;2023-05-20T04:12:38;0.60;;;0.60;;
13012;SDS011;22580;57.670;12.006;2023-05-20T04:15:07;0.60;;;0.60;;
13012;SDS011;22580;57.670;12.006;2023-05-20T04:17:35;0.53;;;0.53;;
13012;SDS011;22580;57.670;12.006;2023-05-20T04:20:05;0.80;;;0.80;;
13012;SDS011;22580;57.670;12.006;2023-05-20T04:22:34;0.80;;;0.80;;
13012;SDS011;22580;57.670;12.006;2023-05-20T04:25:01;1.17;;;1.13;;
13012;SDS011;22580;57.670;12.006;2023-05-20T04:27:29;1.30;;;1.20;;
13012;SDS011;22580;57.670;12.006;2023-05-20T04:29:56;1.40;;;1.30;;
13012;SDS011;22580;57.670;12.006;2023-05-20T04:32:24;1.27;;;1.27;;
13012;SDS011;22580;57.670;12.006;2023-05-20T04:34:52;1.10;;;1.10;;
13012;SDS011;22580;57.670;12.006;2023-05-20T04:37:20;1.70;;;1.60;;
13012;SDS011;22580;57.670;12.006;2023-05-20T04:39:47;1.70;;;1.60;;
13012;SDS011;22580;57.670;12.006;2023-05-20T04:42:15;1.97;;;1.77;;
13012;SDS011;22580;57.670;12.006;2023-05-20T04:44:55;1.87;;;1.77;;
13012;SDS011;22580;57.670;12.006;2023-05-20T04:47:26;3.10;;;2.90;;
13012;SDS011;22580;57.670;12.006;2023-05-20T04:49:53;3.23;;;2.93;;
13012;SDS011;22580;57.670;12.006;2023-05-20T04:52:22;3.03;;;2.83;;
13012;SDS011;22580;57.670;12.006;2023-05-20T04:54:49;2.97;;;2.60;;
13012;SDS011;22580;57.670;12.006;2023-05-20T04:57:16;2.53;;;2.33;;
13012;SDS011;22580;57.670;12.006;2023-05-20T04:59:50;3.00;;;2.70;;
13012;SDS011;22580;57.670;12.006;2023-05-20T05:02:17;2.90;;;2.70;;
13012;SDS011;22580;57.670;12.006;2023-05-20T05:04:46;2.83;;;2.63;;
13012;SDS011;22580;57.670;12.006;2023-05-20T05:07:16;2.63;;;2.43;;
13012;SDS011;22580;57.670;12.006;2023-05-20T05:09:43;2.70;;;2.50;;
13012;SDS011;22580;57.670;12.006;2023-05-20T05:12:12;3.07;;;2.87;;
13012;SDS011;22580;57.670;12.006;2023-05-20T05:14:39;3.27;;;2.97;;
13012;SDS011;22580;57.670;12.006;2023-05-20T05:17:07;3.03;;;2.83;;
13012;SDS011;22580;57.670;12.006;2023-05-20T05:19:35;3.53;;;3.20;;
13012;SDS011;22580;57.670;12.006;2023-05-20T05:22:16;3.40;;;3.20;;
13012;SDS011;22580;57.670;12.006;2023-05-20T05:24:43;3.33;;;3.13;;
13012;SDS011;22580;57.670;12.006;2023-05-20T05:27:10;3.77;;;3.47;;
13012;SDS011;22580;57.670;12.006;2023-05-20T05:29:37;4.00;;;3.70;;
13012;SDS011;22580;57.670;12.006;2023-05-20T05:32:04;3.70;;;3.40;;
13012;SDS011;22580;57.670;12.006;2023-05-20T05:34:31;3.30;;;3.10;;
13012;SDS011;22580;57.670;12.006;2023-05-20T05:36:58;2.73;;;2.53;;
13012;SDS011;22580;57.670;12.006;2023-05-20T05:39:27;3.17;;;2.87;;
13012;SDS011;22580;57.670;12.006;2023-05-20T05:41:56;2.90;;;2.70;;
13012;SDS011;22580;57.670;12.006;2023-05-20T05:44:23;3.37;;;2.97;;
13012;SDS011;22580;57.670;12.006;2023-05-20T05:46:50;2.77;;;2.57;;
13012;SDS011;22580;57.670;12.006;2023-05-20T05:49:17;2.87;;;2.67;;
13012;SDS011;22580;57.670;12.006;2023-05-20T05:51:44;2.70;;;2.50;;
13012;SDS011;22580;57.670;12.006;2023-05-20T05:54:12;3.35;;;2.60;;
13012;SDS011;22580;57.670;12.006;2023-05-20T05:56:41;2.60;;;2.40;;
13012;SDS011;22580;57.670;12.006;2023-05-20T05:59:10;3.50;;;3.20;;
13012;SDS011;22580;57.670;12.006;2023-05-20T06:01:38;3.93;;;3.63;;
13012;SDS011;22580;57.670;12.006;2023-05-20T06:04:05;4.30;;;4.00;;
13012;SDS011;22580;57.670;12.006;2023-05-20T06:06:39;3.38;;;3.08;;
13012;SDS011;22580;57.670;12.006;2023-05-20T06:09:06;3.50;;;3.20;;
13012;SDS011;22580;57.670;12.006;2023-05-20T06:11:35;4.38;;;3.97;;
13012;SDS011;22580;57.670;12.006;2023-05-20T06:14:06;3.30;;;3.00;;
13012;SDS011;22580;57.670;12.006;2023-05-20T06:16:33;4.30;;;3.47;;
13012;SDS011;22580;57.670;12.006;2023-05-20T06:19:02;3.60;;;3.30;;
13012;SDS011;22580;57.670;12.006;2023-05-20T06:21:33;3.40;;;3.10;;
13012;SDS011;22580;57.670;12.006;2023-05-20T06:24:01;3.67;;;3.38;;
13012;SDS011;22580;57.670;12.006;2023-05-20T06:26:29;3.40;;;3.10;;
13012;SDS011;22580;57.670;12.006;2023-05-20T06:28:56;3.40;;;3.10;;
13012;SDS011;22580;57.670;12.006;2023-05-20T06:31:26;3.15;;;2.92;;
13012;SDS011;22580;57.670;12.006;2023-05-20T06:33:56;3.75;;;3.40;;
13012;SDS011;22580;57.670;12.006;2023-05-20T06:36:32;3.45;;;3.15;;
13012;SDS011;22580;57.670;12.006;2023-05-20T06:39:00;3.60;;;3.30;;
13012;SDS011;22580;57.670;12.006;2023-05-20T06:41:27;3.20;;;2.90;;
13012;SDS011;22580;57.670;12.006;2023-05-20T06:43:55;2.70;;;2.50;;
13012;SDS011;22580;57.670;12.006;2023-05-20T06:46:28;2.50;;;2.40;;
13012;SDS011;22580;57.670;12.006;2023-05-20T06:49:16;3.08;;;2.85;;
13012;SDS011;22580;57.670;12.006;2023-05-20T06:51:45;2.85;;;2.65;;
13012;SDS011;22580;57.670;12.006;2023-05-20T06:54:12;3.40;;;3.10;;
13012;SDS011;22580;57.670;12.006;2023-05-20T06:56:39;3.20;;;2.90;;
13012;SDS011;22580;57.670;12.006;2023-05-20T06:59:06;2.72;;;2.53;;
13012;SDS011;22580;57.670;12.006;2023-05-20T07:01:34;2.50;;;2.30;;
13012;SDS011;22580;57.670;12.006;2023-05-20T07:04:03;3.60;;;3.20;;
13012;SDS011;22580;57.670;12.006;2023-05-20T07:06:31;3.45;;;3.15;;
13012;SDS011;22580;57.670;12.006;2023-05-20T07:09:02;3.38;;;3.08;;
13012;SDS011;22580;57.670;12.006;2023-05-20T07:11:29;3.75;;;2.90;;
13012;SDS011;22580;57.670;12.006;2023-05-20T07:13:57;2.80;;;2.60;;
13012;SDS011;22580;57.670;12.006;2023-05-20T07:16:25;3.65;;;3.35;;
13012;SDS011;22580;57.670;12.006;2023-05-20T07:18:56;3.90;;;3.60;;
13012;SDS011;22580;57.670;12.006;2023-05-20T07:21:23;3.30;;;3.00;;
13012;SDS011;22580;57.670;12.006;2023-05-20T07:23:51;2.65;;;2.45;;
13012;SDS011;22580;57.670;12.006;2023-05-20T07:26:20;2.80;;;2.60;;
13012;SDS011;22580;57.670;12.006;2023-05-20T07:28:47;3.70;;;3.40;;
13012;SDS011;22580;57.670;12.006;2023-05-20T07:31:14;3.10;;;2.83;;
13012;SDS011;22580;57.670;12.006;2023-05-20T07:33:41;3.15;;;2.88;;
13012;SDS011;22580;57.670;12.006;2023-05-20T07:36:09;3.15;;;2.90;;
13012;SDS011;22580;57.670;12.006;2023-05-20T07:38:38;2.88;;;2.67;;
13012;SDS011;22580;57.670;12.006;2023-05-20T07:41:05;2.42;;;2.30;;
13012;SDS011;22580;57.670;12.006;2023-05-20T07:43:32;2.40;;;2.20;;
13012;SDS011;22580;57.670;12.006;2023-05-20T07:45:59;2.40;;;2.17;;
13012;SDS011;22580;57.670;12.006;2023-05-20T07:48:26;2.70;;;2.42;;
13012;SDS011;22580;57.670;12.006;2023-05-20T07:50:53;1.70;;;1.60;;
13012;SDS011;22580;57.670;12.006;2023-05-20T07:53:24;1.70;;;1.60;;
13012;SDS011;22580;57.670;12.006;2023-05-20T07:55:51;2.08;;;1.95;;
13012;SDS011;22580;57.670;12.006;2023-05-20T07:58:19;2.92;;;2.60;;
13012;SDS011;22580;57.670;12.006;2023-05-20T08:00:46;2.85;;;2.65;;
13012;SDS011;22580;57.670;12.006;2023-05-20T08:03:14;2.55;;;2.35;;
13012;SDS011;22580;57.670;12.006;2023-05-20T08:05:41;1.85;;;1.75;;
13012;SDS011;22580;57.670;12.006;2023-05-20T08:08:10;1.92;;;1.83;;
13012;SDS011;22580;57.670;12.006;2023-05-20T08:10:40;1.45;;;1.40;;
13012;SDS011;22580;57.670;12.006;2023-05-20T08:13:07;1.88;;;1.67;;
13012;SDS011;22580;57.670;12.006;2023-05-20T08:15:35;2.20;;;2.03;;
13012;SDS011;22580;57.670;12.006;2023-05-20T08:18:04;2.45;;;2.20;;
13012;SDS011;22580;57.670;12.006;2023-05-20T08:20:31;1.80;;;1.70;;
13012;SDS011;22580;57.670;12.006;2023-05-20T08:22:59;1.67;;;1.58;;
13012;SDS011;22580;57.670;12.006;2023-05-20T08:25:26;1.63;;;1.52;;
13012;SDS011;22580;57.670;12.006;2023-05-20T08:27:55;2.03;;;1.85;;
13012;SDS011;22580;57.670;12.006;2023-05-20T08:30:22;2.05;;;1.90;;
13012;SDS011;22580;57.670;12.006;2023-05-20T08:32:49;2.00;;;1.90;;
13012;SDS011;22580;57.670;12.006;2023-05-20T08:35:16;1.63;;;1.52;;
13012;SDS011;22580;57.670;12.006;2023-05-20T08:37:44;2.00;;;1.90;;
13012;SDS011;22580;57.670;12.006;2023-05-20T08:40:18;2.92;;;2.63;;
13012;SDS011;22580;57.670;12.006;2023-05-20T08:42:46;2.38;;;2.17;;
13012;SDS011;22580;57.670;12.006;2023-05-20T08:45:18;2.00;;;1.90;;
13012;SDS011;22580;57.670;12.006;2023-05-20T08:47:50;2.20;;;2.00;;
13012;SDS011;22580;57.670;12.006;2023-05-20T08:50:17;2.53;;;2.33;;
13012;SDS011;22580;57.670;12.006;2023-05-20T08:52:45;1.77;;;1.67;;
13012;SDS011;22580;57.670;12.006;2023-05-20T08:55:14;2.30;;;2.10;;
13012;SDS011;22580;57.670;12.006;2023-05-20T08:57:46;2.10;;;1.92;;
13012;SDS011;22580;57.670;12.006;2023-05-20T09:00:14;1.52;;;1.42;;
13012;SDS011;22580;57.670;12.006;2023-05-20T09:02:44;1.60;;;1.50;;
13012;SDS011;22580;57.670;12.006;2023-05-20T09:05:11;1.10;;;1.10;;
13012;SDS011;22580;57.670;12.006;2023-05-20T09:07:39;1.90;;;1.80;;
13012;SDS011;22580;57.670;12.006;2023-05-20T09:10:08;2.08;;;1.98;;
13012;SDS011;22580;57.670;12.006;2023-05-20T09:12:35;1.90;;;1.80;;
13012;SDS011;22580;57.670;12.006;2023-05-20T09:15:03;1.80;;;1.70;;
13012;SDS011;22580;57.670;12.006;2023-05-20T09:17:31;1.90;;;1.80;;
13012;SDS011;22580;57.670;12.006;2023-05-20T09:19:59;1.60;;;1.50;;
13012;SDS011;22580;57.670;12.006;2023-05-20T09:22:26;1.70;;;1.60;;
13012;SDS011;22580;57.670;12.006;2023-05-20T09:24:54;1.70;;;1.60;;
13012;SDS011;22580;57.670;12.006;2023-05-20T09:27:21;1.50;;;1.40;;
13012;SDS011;22580;57.670;12.006;2023-05-20T09:29:48;1.70;;;1.60;;
13012;SDS011;22580;57.670;12.006;2023-05-20T09:32:15;1.40;;;1.30;;
13012;SDS011;22580;57.670;12.006;2023-05-20T09:34:44;1.42;;;1.42;;
13012;SDS011;22580;57.670;12.006;2023-05-20T09:37:15;1.50;;;1.40;;
13012;SDS011;22580;57.670;12.006;2023-05-20T09:39:45;1.60;;;1.50;;
13012;SDS011;22580;57.670;12.006;2023-05-20T09:42:22;2.00;;;1.80;;
13012;SDS011;22580;57.670;12.006;2023-05-20T09:44:53;2.50;;;2.10;;
13012;SDS011;22580;57.670;12.006;2023-05-20T09:47:22;2.42;;;2.08;;
13012;SDS011;22580;57.670;12.006;2023-05-20T09:49:51;3.13;;;2.33;;
13012;SDS011;22580;57.670;12.006;2023-05-20T09:52:20;2.30;;;2.10;;
13012;SDS011;22580;57.670;12.006;2023-05-20T09:54:49;2.05;;;1.90;;
13012;SDS011;22580;57.670;12.006;2023-05-20T09:57:21;2.72;;;2.35;;
13012;SDS011;22580;57.670;12.006;2023-05-20T09:59:51;3.17;;;2.90;;
13012;SDS011;22580;57.670;12.006;2023-05-20T10:02:19;3.67;;;3.13;;
13012;SDS011;22580;57.670;12.006;2023-05-20T10:04:46;3.30;;;3.00;;
13012;SDS011;22580;57.670;12.006;2023-05-20T10:07:25;3.78;;;3.40;;
13012;SDS011;22580;57.670;12.006;2023-05-20T10:10:07;3.00;;;2.70;;
13012;SDS011;22580;57.670;12.006;2023-05-20T10:12:47;3.72;;;3.42;;
13012;SDS011;22580;57.670;12.006;2023-05-20T10:15:27;3.38;;;3.08;;
13012;SDS011;22580;57.670;12.006;2023-05-20T10:18:05;3.63;;;3.33;;
13012;SDS011;22580;57.670;12.006;2023-05-20T10:20:44;3.20;;;2.90;;
13012;SDS011;22580;57.670;12.006;2023-05-20T10:23:20;3.35;;;2.90;;
13012;SDS011;22580;57.670;12.006;2023-05-20T10:25:51;2.80;;;2.60;;
13012;SDS011;22580;57.670;12.006;2023-05-20T10:28:29;3.67;;;2.92;;
13012;SDS011;22580;57.670;12.006;2023-05-20T10:30:58;3.20;;;2.47;;
13012;SDS011;22580;57.670;12.006;2023-05-20T10:33:28;3.20;;;2.90;;
13012;SDS011;22580;57.670;12.006;2023-05-20T10:35:57;2.95;;;2.70;;
13012;SDS011;22580;57.670;12.006;2023-05-20T10:38:33;2.60;;;2.40;;
13012;SDS011;22580;57.670;12.006;2023-05-20T10:41:07;2.60;;;2.40;;
13012;SDS011;22580;57.670;12.006;2023-05-20T10:43:35;2.33;;;2.22;;
13012;SDS011;22580;57.670;12.006;2023-05-20T10:46:03;3.20;;;2.90;;
13012;SDS011;22580;57.670;12.006;2023-05-20T10:48:30;2.97;;;2.67;;
13012;SDS011;22580;57.670;12.006;2023-05-20T10:50:58;2.85;;;2.65;;
13012;SDS011;22580;57.670;12.006;2023-05-20T10:53:28;3.20;;;2.90;;
13012;SDS011;22580;57.670;12.006;2023-05-20T10:55:57;2.75;;;2.55;;
13012;SDS011;22580;57.670;12.006;2023-05-20T10:58:25;2.53;;;2.33;;
13012;SDS011;22580;57.670;12.006;2023-05-20T11:00:52;2.33;;;2.17;;
13012;SDS011;22580;57.670;12.006;2023-05-20T11:03:21;2.60;;;2.40;;
13012;SDS011;22580;57.670;12.006;2023-05-20T11:05:48;3.47;;;2.42;;
13012;SDS011;22580;57.670;12.006;2023-05-20T11:08:18;2.42;;;2.22;;
13012;SDS011;22580;57.670;12.006;2023-05-20T11:10:47;2.67;;;2.47;;
13012;SDS011;22580;57.670;12.006;2023-05-20T11:13:16;2.80;;;2.60;;
13012;SDS011;22580;57.670;12.006;2023-05-20T11:15:43;2.97;;;2.78;;
13012;SDS011;22580;57.670;12.006;2023-05-20T11:18:10;3.38;;;2.70;;
13012;SDS011;22580;57.670;12.006;2023-05-20T11:20:39;2.75;;;2.55;;
13012;SDS011;22580;57.670;12.006;2023-05-20T11:23:10;2.88;;;2.67;;
13012;SDS011;22580;57.670;12.006;2023-05-20T11:25:39;3.10;;;2.90;;
13012;SDS011;22580;57.670;12.006;2023-05-20T11:28:07;3.10;;;2.90;;
13012;SDS011;22580;57.670;12.006;2023-05-20T11:30:39;3.40;;;3.10;;
13012;SDS011;22580;57.670;12.006;2023-05-20T11:33:10;2.80;;;2.60;;
13012;SDS011;22580;57.670;12.006;2023-05-20T11:35:43;2.58;;;2.38;;
13012;SDS011;22580;57.670;12.006;2023-05-20T11:38:10;2.80;;;2.60;;
13012;SDS011;22580;57.670;12.006;2023-05-20T11:40:41;3.15;;;2.95;;
13012;SDS011;22580;57.670;12.006;2023-05-20T11:43:10;3.22;;;2.92;;
13012;SDS011;22580;57.670;12.006;2023-05-20T11:45:40;3.35;;;3.05;;
13012;SDS011;22580;57.670;12.006;2023-05-20T11:48:08;2.80;;;2.60;;
13012;SDS011;22580;57.670;12.006;2023-05-20T11:50:40;2.78;;;2.53;;
13012;SDS011;22580;57.670;12.006;2023-05-20T11:53:10;2.58;;;2.38;;
13012;SDS011;22580;57.670;12.006;2023-05-20T11:55:46;3.10;;;2.88;;
13012;SDS011;22580;57.670;12.006;2023-05-20T11:58:17;3.10;;;2.90;;
13012;SDS011;22580;57.670;12.006;2023-05-20T12:00:47;3.42;;;3.05;;
13012;SDS011;22580;57.670;12.006;2023-05-20T12:03:15;4.05;;;3.42;;
13012;SDS011;22580;57.670;12.006;2023-05-20T12:05:42;4.78;;;3.42;;
13012;SDS011;22580;57.670;12.006;2023-05-20T12:08:09;3.60;;;2.70;;
13012;SDS011;22580;57.670;12.006;2023-05-20T12:10:39;3.42;;;3.20;;
13012;SDS011;22580;57.670;12.006;2023-05-20T12:13:06;2.85;;;2.65;;
13012;SDS011;22580;57.670;12.006;2023-05-20T12:15:37;2.95;;;2.75;;
13012;SDS011;22580;57.670;12.006;2023-05-20T12:18:08;2.83;;;2.63;;
13012;SDS011;22580;57.670;12.006;2023-05-20T12:20:35;2.90;;;2.70;;
13012;SDS011;22580;57.670;12.006;2023-05-20T12:23:02;3.63;;;3.33;;
13012;SDS011;22580;57.670;12.006;2023-05-20T12:25:32;3.63;;;3.33;;
13012;SDS011;22580;57.670;12.006;2023-05-20T12:28:00;3.45;;;3.15;;
13012;SDS011;22580;57.670;12.006;2023-05-20T12:33:05;3.40;;;3.20;;
13012;SDS011;22580;57.670;12.006;2023-05-20T12:35:38;3.35;;;3.15;;
13012;SDS011;22580;57.670;12.006;2023-05-20T12:38:06;3.15;;;2.95;;
13012;SDS011;22580;57.670;12.006;2023-05-20T12:40:33;3.45;;;3.15;;
13012;SDS011;22580;57.670;12.006;2023-05-20T12:43:01;2.78;;;2.58;;
13012;SDS011;22580;57.670;12.006;2023-05-20T12:45:29;3.10;;;2.88;;
13012;SDS011;22580;57.670;12.006;2023-05-20T12:47:56;2.85;;;2.65;;
13012;SDS011;22580;57.670;12.006;2023-05-20T12:50:23;3.35;;;3.00;;
13012;SDS011;22580;57.670;12.006;2023-05-20T12:52:52;2.65;;;2.45;;
13012;SDS011;22580;57.670;12.006;2023-05-20T12:55:19;3.30;;;2.83;;
13012;SDS011;22580;57.670;12.006;2023-05-20T12:57:46;2.97;;;2.78;;
13012;SDS011;22580;57.670;12.006;2023-05-20T13:00:13;2.88;;;2.67;;
13012;SDS011;22580;57.670;12.006;2023-05-20T13:02:41;2.70;;;2.50;;
13012;SDS011;22580;57.670;12.006;2023-05-20T13:05:09;3.15;;;2.95;;
13012;SDS011;22580;57.670;12.006;2023-05-20T13:07:36;2.50;;;2.40;;
13012;SDS011;22580;57.670;12.006;2023-05-20T13:10:05;3.20;;;3.00;;
13012;SDS011;22580;57.670;12.006;2023-05-20T13:12:34;3.10;;;2.90;;
13012;SDS011;22580;57.670;12.006;2023-05-20T13:15:01;3.08;;;2.78;;
13012;SDS011;22580;57.670;12.006;2023-05-20T13:17:29;2.85;;;2.65;;
13012;SDS011;22580;57.670;12.006;2023-05-20T13:19:56;3.10;;;2.90;;
13012;SDS011;22580;57.670;12.006;2023-05-20T13:22:23;3.15;;;2.92;;
13012;SDS011;22580;57.670;12.006;2023-05-20T13:24:50;3.05;;;2.85;;
13012;SDS011;22580;57.670;12.006;2023-05-20T13:27:20;3.58;;;3.28;;
13012;SDS011;22580;57.670;12.006;2023-05-20T13:29:47;3.03;;;2.83;;
13012;SDS011;22580;57.670;12.006;2023-05-20T13:32:14;2.83;;;2.63;;
13012;SDS011;22580;57.670;12.006;2023-05-20T13:34:41;2.78;;;2.58;;
13012;SDS011;22580;57.670;12.006;2023-05-20T13:37:08;2.90;;;2.65;;
13012;SDS011;22580;57.670;12.006;2023-05-20T13:39:35;3.67;;;2.90;;
13012;SDS011;22580;57.670;12.006;2023-05-20T13:42:02;3.38;;;3.08;;
13012;SDS011;22580;57.670;12.006;2023-05-20T13:44:31;2.90;;;2.70;;
13012;SDS011;22580;57.670;12.006;2023-05-20T13:46:58;2.22;;;2.13;;
13012;SDS011;22580;57.670;12.006;2023-05-20T13:49:25;2.63;;;2.45;;
13012;SDS011;22580;57.670;12.006;2023-05-20T13:51:52;2.55;;;2.38;;
13012;SDS011;22580;57.670;12.006;2023-05-20T13:54:19;2.17;;;2.08;;
13012;SDS011;22580;57.670;12.006;2023-05-20T13:56:47;1.85;;;1.70;;
13012;SDS011;22580;57.670;12.006;2023-05-20T13:59:14;2.67;;;2.47;;
13012;SDS011;22580;57.670;12.006;2023-05-20T14:01:43;2.80;;;2.60;;
13012;SDS011;22580;57.670;12.006;2023-05-20T14:04:10;2.28;;;2.15;;
13012;SDS011;22580;57.670;12.006;2023-05-20T14:06:39;2.20;;;2.10;;
13012;SDS011;22580;57.670;12.006;2023-05-20T14:09:07;2.33;;;2.15;;
13012;SDS011;22580;57.670;12.006;2023-05-20T14:11:34;2.80;;;2.60;;
13012;SDS011;22580;57.670;12.006;2023-05-20T14:14:01;2.35;;;2.20;;
13012;SDS011;22580;57.670;12.006;2023-05-20T14:16:28;1.83;;;1.73;;
13012;SDS011;22580;57.670;12.006;2023-05-20T14:18:57;2.22;;;2.13;;
13012;SDS011;22580;57.670;12.006;2023-05-20T14:21:25;2.10;;;2.00;;
13012;SDS011;22580;57.670;12.006;2023-05-20T14:23:52;2.38;;;2.20;;
13012;SDS011;22580;57.670;12.006;2023-05-20T14:26:19;1.95;;;1.85;;
13012;SDS011;22580;57.670;12.006;2023-05-20T14:28:46;2.28;;;2.17;;
13012;SDS011;22580;57.670;12.006;2023-05-20T14:31:13;2.08;;;1.98;;
13012;SDS011;22580;57.670;12.006;2023-05-20T14:33:42;2.00;;;1.90;;
13012;SDS011;22580;57.670;12.006;2023-05-20T14:36:10;2.05;;;1.95;;
13012;SDS011;22580;57.670;12.006;2023-05-20T14:38:37;2.50;;;2.30;;
13012;SDS011;22580;57.670;12.006;2023-05-20T14:41:04;2.42;;;2.33;;
13012;SDS011;22580;57.670;12.006;2023-05-20T14:43:31;2.90;;;2.35;;